sensor_id;sensor_type;location;lat;lon;timestamp;pressure;altitude;pressure_sealevel;temperature;humidity
20930;BME280;21895;47.072;15.132;2024-03-02T00:02:00;95945.00;;;10.27;85.99
20930;BME280;21895;47.072;15.132;2024-03-02T00:04:27;95951.00;;;10.18;86.20
20930;BME280;21895;47.072;15.132;2024-03-02T00:06:53;95948.00;;;10.27;85.79
20930;BME280;21895;47.072;15.132;2024-03-02T00:09:23;95950.00;;;10.16;86.15
20930;BME280;21895;47.072;15.132;2024-03-02T00:11:50;95954.00;;;10.24;85.65
20930;BME280;21895;47.072;15.132;2024-03-02T00:14:17;95946.00;;;10.12;85.94
20930;BME280;21895;47.072;15.132;2024-03-02T00:16:43;95953.00;;;10.18;85.60
20930;BME280;21895;47.072;15.132;2024-03-02T00:19:11;95945.00;;;10.13;85.72
20930;BME280;21895;47.072;15.132;2024-03-02T00:21:37;95941.00;;;10.17;85.70
20930;BME280;21895;47.072;15.132;2024-03-02T00:24:31;95946.00;;;10.12;85.95
20930;BME280;21895;47.072;15.132;2024-03-02T00:26:58;95944.00;;;10.11;86.07
20930;BME280;21895;47.072;15.132;2024-03-02T00:29:25;95943.00;;;10.10;86.22
20930;BME280;21895;47.072;15.132;2024-03-02T00:31:52;95944.00;;;10.12;85.85
20930;BME280;21895;47.072;15.132;2024-03-02T00:34:19;95940.00;;;10.02;86.43
20930;BME280;21895;47.072;15.132;2024-03-02T00:36:46;95951.00;;;10.07;86.36
20930;BME280;21895;47.072;15.132;2024-03-02T00:39:15;95952.00;;;10.21;85.62
20930;BME280;21895;47.072;15.132;2024-03-02T00:41:43;95960.00;;;10.13;85.74
20930;BME280;21895;47.072;15.132;2024-03-02T00:44:15;95948.00;;;10.15;85.71
20930;BME280;21895;47.072;15.132;2024-03-02T00:46:43;95946.00;;;10.12;85.85
20930;BME280;21895;47.072;15.132;2024-03-02T00:49:22;95947.00;;;10.16;85.73
20930;BME280;21895;47.072;15.132;2024-03-02T00:51:51;95948.00;;;10.17;85.56
20930;BME280;21895;47.072;15.132;2024-03-02T00:54:25;95951.00;;;10.18;85.66
20930;BME280;21895;47.072;15.132;2024-03-02T00:56:52;95950.00;;;10.08;85.93
20930;BME280;21895;47.072;15.132;2024-03-02T00:59:25;95959.00;;;10.09;85.80
20930;BME280;21895;47.072;15.132;2024-03-02T01:01:52;95953.00;;;10.32;84.50
20930;BME280;21895;47.072;15.132;2024-03-02T01:04:20;95951.00;;;10.27;84.37
20930;BME280;21895;47.072;15.132;2024-03-02T01:06:46;95958.00;;;10.41;83.44
20930;BME280;21895;47.072;15.132;2024-03-02T01:09:14;95950.00;;;10.10;84.48
20930;BME280;21895;47.072;15.132;2024-03-02T01:11:41;95956.00;;;10.01;84.96
20930;BME280;21895;47.072;15.132;2024-03-02T01:14:07;95963.00;;;10.06;84.77
20930;BME280;21895;47.072;15.132;2024-03-02T01:16:34;95960.00;;;10.09;84.36
20930;BME280;21895;47.072;15.132;2024-03-02T01:19:00;95960.00;;;10.16;83.89
20930;BME280;21895;47.072;15.132;2024-03-02T01:21:27;95953.00;;;10.04;84.26
20930;BME280;21895;47.072;15.132;2024-03-02T01:23:54;95961.00;;;9.98;84.71
20930;BME280;21895;47.072;15.132;2024-03-02T01:26:21;95954.00;;;10.07;84.31
20930;BME280;21895;47.072;15.132;2024-03-02T01:28:47;95956.00;;;10.15;84.00
20930;BME280;21895;47.072;15.132;2024-03-02T01:31:14;95950.00;;;10.06;84.41
20930;BME280;21895;47.072;15.132;2024-03-02T01:33:41;95949.00;;;10.02;84.56
20930;BME280;21895;47.072;15.132;2024-03-02T01:36:07;95946.00;;;10.00;84.48
20930;BME280;21895;47.072;15.132;2024-03-02T01:38:34;95949.00;;;10.04;84.50
20930;BME280;21895;47.072;15.132;2024-03-02T01:41:01;95948.00;;;10.00;84.34
20930;BME280;21895;47.072;15.132;2024-03-02T01:43:28;95950.00;;;9.89;84.80
20930;BME280;21895;47.072;15.132;2024-03-02T01:45:55;95945.00;;;9.95;84.40
20930;BME280;21895;47.072;15.132;2024-03-02T01:48:22;95952.00;;;9.89;84.77
20930;BME280;21895;47.072;15.132;2024-03-02T01:50:49;95954.00;;;9.88;85.02
20930;BME280;21895;47.072;15.132;2024-03-02T01:53:16;95950.00;;;9.86;85.37
20930;BME280;21895;47.072;15.132;2024-03-02T01:55:43;95946.00;;;9.93;85.08
20930;BME280;21895;47.072;15.132;2024-03-02T01:58:09;95938.00;;;9.85;85.35
20930;BME280;21895;47.072;15.132;2024-03-02T02:00:36;95939.00;;;9.92;85.30
20930;BME280;21895;47.072;15.132;2024-03-02T02:03:03;95943.00;;;9.91;85.23
20930;BME280;21895;47.072;15.132;2024-03-02T02:05:30;95935.00;;;9.90;85.37
20930;BME280;21895;47.072;15.132;2024-03-02T02:07:58;95939.00;;;9.87;85.71
20930;BME280;21895;47.072;15.132;2024-03-02T02:10:24;95934.00;;;9.88;85.87
20930;BME280;21895;47.072;15.132;2024-03-02T02:12:51;95940.00;;;9.88;86.10
20930;BME280;21895;47.072;15.132;2024-03-02T02:15:29;95946.00;;;9.90;85.94
20930;BME280;21895;47.072;15.132;2024-03-02T02:17:57;95938.00;;;9.97;85.49
20930;BME280;21895;47.072;15.132;2024-03-02T02:20:25;95936.00;;;9.99;85.29
20930;BME280;21895;47.072;15.132;2024-03-02T02:23:10;95931.00;;;9.91;85.93
20930;BME280;21895;47.072;15.132;2024-03-02T02:25:37;95933.00;;;9.93;85.65
20930;BME280;21895;47.072;15.132;2024-03-02T02:28:04;95937.00;;;9.81;86.36
20930;BME280;21895;47.072;15.132;2024-03-02T02:30:32;95928.00;;;9.81;86.54
20930;BME280;21895;47.072;15.132;2024-03-02T02:32:59;95930.00;;;9.84;86.49
20930;BME280;21895;47.072;15.132;2024-03-02T02:35:26;95925.00;;;9.82;86.64
20930;BME280;21895;47.072;15.132;2024-03-02T02:37:55;95920.00;;;9.86;86.66
20930;BME280;21895;47.072;15.132;2024-03-02T02:40:23;95914.00;;;9.87;86.39
20930;BME280;21895;47.072;15.132;2024-03-02T02:42:50;95917.00;;;9.85;86.05
20930;BME280;21895;47.072;15.132;2024-03-02T02:45:18;95910.00;;;9.73;86.61
20930;BME280;21895;47.072;15.132;2024-03-02T02:47:45;95902.00;;;9.69;87.10
20930;BME280;21895;47.072;15.132;2024-03-02T02:50:12;95906.00;;;9.82;86.58
20930;BME280;21895;47.072;15.132;2024-03-02T02:52:41;95898.00;;;9.80;86.07
20930;BME280;21895;47.072;15.132;2024-03-02T02:55:10;95897.00;;;9.81;86.04
20930;BME280;21895;47.072;15.132;2024-03-02T02:57:40;95901.00;;;9.87;85.83
20930;BME280;21895;47.072;15.132;2024-03-02T03:00:11;95899.00;;;9.76;86.54
20930;BME280;21895;47.072;15.132;2024-03-02T03:02:47;95903.00;;;9.78;86.89
20930;BME280;21895;47.072;15.132;2024-03-02T03:05:15;95897.00;;;9.73;86.80
20930;BME280;21895;47.072;15.132;2024-03-02T03:07:42;95905.00;;;9.91;85.86
20930;BME280;21895;47.072;15.132;2024-03-02T03:10:10;95905.00;;;9.86;86.06
20930;BME280;21895;47.072;15.132;2024-03-02T03:12:37;95909.00;;;9.84;86.21
20930;BME280;21895;47.072;15.132;2024-03-02T03:15:05;95904.00;;;9.86;86.00
20930;BME280;21895;47.072;15.132;2024-03-02T03:17:33;95908.00;;;9.68;86.78
20930;BME280;21895;47.072;15.132;2024-03-02T03:19:59;95915.00;;;9.74;86.76
20930;BME280;21895;47.072;15.132;2024-03-02T03:22:27;95909.00;;;9.80;86.53
20930;BME280;21895;47.072;15.132;2024-03-02T03:24:54;95915.00;;;9.86;86.14
20930;BME280;21895;47.072;15.132;2024-03-02T03:27:20;95916.00;;;9.81;86.33
20930;BME280;21895;47.072;15.132;2024-03-02T03:29:47;95914.00;;;9.85;86.19
20930;BME280;21895;47.072;15.132;2024-03-02T03:32:14;95917.00;;;9.87;86.27
20930;BME280;21895;47.072;15.132;2024-03-02T03:34:41;95908.00;;;9.86;86.31
20930;BME280;21895;47.072;15.132;2024-03-02T03:37:07;95910.00;;;9.77;86.51
20930;BME280;21895;47.072;15.132;2024-03-02T03:39:34;95909.00;;;9.74;86.88
20930;BME280;21895;47.072;15.132;2024-03-02T03:42:05;95908.00;;;9.86;86.41
20930;BME280;21895;47.072;15.132;2024-03-02T03:44:31;95905.00;;;9.79;86.23
20930;BME280;21895;47.072;15.132;2024-03-02T03:46:58;95905.00;;;9.84;86.18
20930;BME280;21895;47.072;15.132;2024-03-02T03:49:24;95903.00;;;9.71;86.89
20930;BME280;21895;47.072;15.132;2024-03-02T03:51:51;95905.00;;;9.64;87.28
20930;BME280;21895;47.072;15.132;2024-03-02T03:54:18;95903.00;;;9.68;87.26
20930;BME280;21895;47.072;15.132;2024-03-02T03:56:44;95906.00;;;9.77;87.03
20930;BME280;21895;47.072;15.132;2024-03-02T03:59:11;95909.00;;;9.84;86.80
20930;BME280;21895;47.072;15.132;2024-03-02T04:01:38;95905.00;;;9.81;86.87
20930;BME280;21895;47.072;15.132;2024-03-02T04:04:04;95901.00;;;9.85;86.62
20930;BME280;21895;47.072;15.132;2024-03-02T04:06:31;95902.00;;;9.89;86.46
20930;BME280;21895;47.072;15.132;2024-03-02T04:08:58;95903.00;;;9.88;86.17
20930;BME280;21895;47.072;15.132;2024-03-02T04:11:24;95899.00;;;9.71;86.57
20930;BME280;21895;47.072;15.132;2024-03-02T04:13:51;95896.00;;;9.79;86.38
20930;BME280;21895;47.072;15.132;2024-03-02T04:16:18;95905.00;;;9.71;86.62
20930;BME280;21895;47.072;15.132;2024-03-02T04:18:44;95898.00;;;9.66;86.75
20930;BME280;21895;47.072;15.132;2024-03-02T04:21:11;95901.00;;;9.66;86.95
20930;BME280;21895;47.072;15.132;2024-03-02T04:23:38;95891.00;;;9.81;86.40
20930;BME280;21895;47.072;15.132;2024-03-02T04:26:04;95900.00;;;9.79;86.09
20930;BME280;21895;47.072;15.132;2024-03-02T04:28:31;95897.00;;;9.83;85.80
20930;BME280;21895;47.072;15.132;2024-03-02T04:30:57;95905.00;;;9.79;85.99
20930;BME280;21895;47.072;15.132;2024-03-02T04:33:24;95911.00;;;9.78;85.82
20930;BME280;21895;47.072;15.132;2024-03-02T04:35:51;95908.00;;;9.68;86.08
20930;BME280;21895;47.072;15.132;2024-03-02T04:38:17;95913.00;;;9.62;86.44
20930;BME280;21895;47.072;15.132;2024-03-02T04:40:44;95912.00;;;9.64;86.30
20930;BME280;21895;47.072;15.132;2024-03-02T04:43:11;95914.00;;;9.60;86.49
20930;BME280;21895;47.072;15.132;2024-03-02T04:45:41;95918.00;;;9.66;86.54
20930;BME280;21895;47.072;15.132;2024-03-02T04:48:08;95923.00;;;9.62;86.79
20930;BME280;21895;47.072;15.132;2024-03-02T04:50:34;95924.00;;;9.76;86.27
20930;BME280;21895;47.072;15.132;2024-03-02T04:53:01;95924.00;;;9.71;86.19
20930;BME280;21895;47.072;15.132;2024-03-02T04:55:27;95918.00;;;9.72;85.84
20930;BME280;21895;47.072;15.132;2024-03-02T04:57:54;95927.00;;;9.55;86.47
20930;BME280;21895;47.072;15.132;2024-03-02T05:00:24;95931.00;;;9.50;86.96
20930;BME280;21895;47.072;15.132;2024-03-02T05:02:50;95933.00;;;9.58;86.55
20930;BME280;21895;47.072;15.132;2024-03-02T05:05:17;95932.00;;;9.64;86.42
20930;BME280;21895;47.072;15.132;2024-03-02T05:07:44;95941.00;;;9.69;86.05
20930;BME280;21895;47.072;15.132;2024-03-02T05:10:10;95938.00;;;9.62;85.73
20930;BME280;21895;47.072;15.132;2024-03-02T05:12:38;95942.00;;;9.65;85.49
20930;BME280;21895;47.072;15.132;2024-03-02T05:15:13;95939.00;;;9.64;85.28
20930;BME280;21895;47.072;15.132;2024-03-02T05:17:41;95939.00;;;9.56;85.76
20930;BME280;21895;47.072;15.132;2024-03-02T05:20:11;95949.00;;;9.45;86.11
20930;BME280;21895;47.072;15.132;2024-03-02T05:22:38;95940.00;;;9.52;85.41
20930;BME280;21895;47.072;15.132;2024-03-02T05:25:06;95943.00;;;9.43;85.92
20930;BME280;21895;47.072;15.132;2024-03-02T05:27:33;95947.00;;;9.41;85.97
20930;BME280;21895;47.072;15.132;2024-03-02T05:30:01;95935.00;;;9.39;85.98
20930;BME280;21895;47.072;15.132;2024-03-02T05:32:28;95938.00;;;9.33;86.42
20930;BME280;21895;47.072;15.132;2024-03-02T05:34:54;95939.00;;;9.35;86.50
20930;BME280;21895;47.072;15.132;2024-03-02T05:37:21;95938.00;;;9.24;86.60
20930;BME280;21895;47.072;15.132;2024-03-02T05:39:47;95942.00;;;9.32;86.43
20930;BME280;21895;47.072;15.132;2024-03-02T05:42:14;95945.00;;;9.41;86.32
20930;BME280;21895;47.072;15.132;2024-03-02T05:44:43;95950.00;;;9.41;86.33
20930;BME280;21895;47.072;15.132;2024-03-02T05:47:09;95957.00;;;9.40;86.52
20930;BME280;21895;47.072;15.132;2024-03-02T05:49:36;95958.00;;;9.47;86.19
20930;BME280;21895;47.072;15.132;2024-03-02T05:52:03;95960.00;;;9.47;85.89
20930;BME280;21895;47.072;15.132;2024-03-02T05:54:29;95957.00;;;9.48;85.35
20930;BME280;21895;47.072;15.132;2024-03-02T05:56:56;95962.00;;;9.43;85.60
20930;BME280;21895;47.072;15.132;2024-03-02T05:59:22;95974.00;;;9.44;85.13
20930;BME280;21895;47.072;15.132;2024-03-02T06:01:49;95965.00;;;9.57;84.64
20930;BME280;21895;47.072;15.132;2024-03-02T06:04:18;95968.00;;;9.47;84.74
20930;BME280;21895;47.072;15.132;2024-03-02T06:06:44;95968.00;;;9.42;85.09
20930;BME280;21895;47.072;15.132;2024-03-02T06:09:11;95972.00;;;9.46;84.76
20930;BME280;21895;47.072;15.132;2024-03-02T06:11:41;95976.00;;;9.47;84.68
20930;BME280;21895;47.072;15.132;2024-03-02T06:14:08;95979.00;;;9.57;84.50
20930;BME280;21895;47.072;15.132;2024-03-02T06:16:35;95982.00;;;9.54;84.38
20930;BME280;21895;47.072;15.132;2024-03-02T06:19:02;95982.00;;;9.46;84.69
20930;BME280;21895;47.072;15.132;2024-03-02T06:21:29;95983.00;;;9.49;85.12
20930;BME280;21895;47.072;15.132;2024-03-02T06:23:56;95988.00;;;9.56;84.72
20930;BME280;21895;47.072;15.132;2024-03-02T06:26:22;95987.00;;;9.61;84.50
20930;BME280;21895;47.072;15.132;2024-03-02T06:28:52;95986.00;;;9.61;84.40
20930;BME280;21895;47.072;15.132;2024-03-02T06:31:19;95984.00;;;9.60;84.56
20930;BME280;21895;47.072;15.132;2024-03-02T06:33:46;95997.00;;;9.62;84.40
20930;BME280;21895;47.072;15.132;2024-03-02T06:36:13;95985.00;;;9.68;84.22
20930;BME280;21895;47.072;15.132;2024-03-02T06:38:41;95999.00;;;9.78;83.82
20930;BME280;21895;47.072;15.132;2024-03-02T06:41:09;96002.00;;;9.82;83.38
20930;BME280;21895;47.072;15.132;2024-03-02T06:43:37;95992.00;;;9.90;82.46
20930;BME280;21895;47.072;15.132;2024-03-02T06:46:04;95996.00;;;9.88;81.93
20930;BME280;21895;47.072;15.132;2024-03-02T06:48:32;95991.00;;;9.85;81.68
20930;BME280;21895;47.072;15.132;2024-03-02T06:50:59;95998.00;;;9.76;81.85
20930;BME280;21895;47.072;15.132;2024-03-02T06:53:25;96000.00;;;9.89;81.30
20930;BME280;21895;47.072;15.132;2024-03-02T06:55:52;96004.00;;;9.83;81.27
20930;BME280;21895;47.072;15.132;2024-03-02T06:58:19;95998.00;;;9.86;81.62
20930;BME280;21895;47.072;15.132;2024-03-02T07:00:45;96000.00;;;9.84;81.25
20930;BME280;21895;47.072;15.132;2024-03-02T07:03:12;96006.00;;;9.89;80.77
20930;BME280;21895;47.072;15.132;2024-03-02T07:05:40;96004.00;;;9.86;80.38
20930;BME280;21895;47.072;15.132;2024-03-02T07:08:06;96009.00;;;9.89;80.14
20930;BME280;21895;47.072;15.132;2024-03-02T07:10:33;96009.00;;;10.03;80.05
20930;BME280;21895;47.072;15.132;2024-03-02T07:12:59;96007.00;;;10.00;80.17
20930;BME280;21895;47.072;15.132;2024-03-02T07:15:27;96004.00;;;10.08;79.91
20930;BME280;21895;47.072;15.132;2024-03-02T07:17:53;96004.00;;;10.28;79.44
20930;BME280;21895;47.072;15.132;2024-03-02T07:20:20;95999.00;;;10.37;79.23
20930;BME280;21895;47.072;15.132;2024-03-02T07:22:47;96000.00;;;10.46;79.09
20930;BME280;21895;47.072;15.132;2024-03-02T07:25:14;96007.00;;;10.59;78.83
20930;BME280;21895;47.072;15.132;2024-03-02T07:27:44;96004.00;;;10.64;78.11
20930;BME280;21895;47.072;15.132;2024-03-02T07:30:14;96005.00;;;10.58;77.91
20930;BME280;21895;47.072;15.132;2024-03-02T07:32:42;96007.00;;;10.62;77.47
20930;BME280;21895;47.072;15.132;2024-03-02T07:35:15;96002.00;;;10.48;77.59
20930;BME280;21895;47.072;15.132;2024-03-02T07:37:42;96010.00;;;10.52;77.01
20930;BME280;21895;47.072;15.132;2024-03-02T07:40:10;96011.00;;;10.62;76.03
20930;BME280;21895;47.072;15.132;2024-03-02T07:42:40;96009.00;;;10.53;76.32
20930;BME280;21895;47.072;15.132;2024-03-02T07:45:08;96009.00;;;10.45;76.79
20930;BME280;21895;47.072;15.132;2024-03-02T07:47:35;96011.00;;;10.51;76.03
20930;BME280;21895;47.072;15.132;2024-03-02T07:50:02;96006.00;;;10.41;76.68
20930;BME280;21895;47.072;15.132;2024-03-02T07:52:29;95998.00;;;10.47;75.96
20930;BME280;21895;47.072;15.132;2024-03-02T07:54:56;96003.00;;;10.50;76.40
20930;BME280;21895;47.072;15.132;2024-03-02T07:57:22;96000.00;;;10.60;76.04
20930;BME280;21895;47.072;15.132;2024-03-02T07:59:49;96008.00;;;10.66;75.82
20930;BME280;21895;47.072;15.132;2024-03-02T08:02:16;96002.00;;;10.69;75.31
20930;BME280;21895;47.072;15.132;2024-03-02T08:04:43;96003.00;;;10.80;74.82
20930;BME280;21895;47.072;15.132;2024-03-02T08:07:09;96003.00;;;10.77;75.17
20930;BME280;21895;47.072;15.132;2024-03-02T08:09:36;95995.00;;;11.05;74.46
20930;BME280;21895;47.072;15.132;2024-03-02T08:12:03;95998.00;;;11.14;74.12
20930;BME280;21895;47.072;15.132;2024-03-02T08:14:30;96004.00;;;11.18;73.75
20930;BME280;21895;47.072;15.132;2024-03-02T08:16:56;96001.00;;;11.50;73.16
20930;BME280;21895;47.072;15.132;2024-03-02T08:19:23;96000.00;;;11.56;72.18
20930;BME280;21895;47.072;15.132;2024-03-02T08:21:50;95991.00;;;11.64;71.49
20930;BME280;21895;47.072;15.132;2024-03-02T08:24:16;95994.00;;;11.77;70.64
20930;BME280;21895;47.072;15.132;2024-03-02T08:26:43;95986.00;;;11.77;70.36
20930;BME280;21895;47.072;15.132;2024-03-02T08:29:10;95981.00;;;11.91;69.12
20930;BME280;21895;47.072;15.132;2024-03-02T08:31:37;95990.00;;;11.76;68.79
20930;BME280;21895;47.072;15.132;2024-03-02T08:34:07;95992.00;;;11.64;68.95
20930;BME280;21895;47.072;15.132;2024-03-02T08:36:35;95985.00;;;11.75;68.51
20930;BME280;21895;47.072;15.132;2024-03-02T08:39:02;95982.00;;;12.06;67.47
20930;BME280;21895;47.072;15.132;2024-03-02T08:41:29;95988.00;;;11.85;68.91
20930;BME280;21895;47.072;15.132;2024-03-02T08:43:56;95981.00;;;11.81;68.52
20930;BME280;21895;47.072;15.132;2024-03-02T08:46:22;95980.00;;;11.72;68.91
20930;BME280;21895;47.072;15.132;2024-03-02T08:48:49;95977.00;;;11.89;68.77
20930;BME280;21895;47.072;15.132;2024-03-02T08:51:16;95975.00;;;12.28;68.01
20930;BME280;21895;47.072;15.132;2024-03-02T08:53:42;95971.00;;;12.49;66.85
20930;BME280;21895;47.072;15.132;2024-03-02T08:56:10;95969.00;;;12.56;66.96
20930;BME280;21895;47.072;15.132;2024-03-02T08:58:36;95973.00;;;12.82;65.77
20930;BME280;21895;47.072;15.132;2024-03-02T09:01:03;95967.00;;;12.91;65.74
20930;BME280;21895;47.072;15.132;2024-03-02T09:03:30;95963.00;;;13.07;65.35
20930;BME280;21895;47.072;15.132;2024-03-02T09:05:59;95972.00;;;13.18;64.33
20930;BME280;21895;47.072;15.132;2024-03-02T09:08:26;95957.00;;;13.12;65.21
20930;BME280;21895;47.072;15.132;2024-03-02T09:10:53;95960.00;;;13.17;65.13
20930;BME280;21895;47.072;15.132;2024-03-02T09:13:19;95956.00;;;13.18;65.23
20930;BME280;21895;47.072;15.132;2024-03-02T09:15:46;95960.00;;;13.41;65.52
20930;BME280;21895;47.072;15.132;2024-03-02T09:18:13;95960.00;;;13.14;64.55
20930;BME280;21895;47.072;15.132;2024-03-02T09:20:39;95964.00;;;13.25;65.33
20930;BME280;21895;47.072;15.132;2024-03-02T09:23:06;95962.00;;;13.25;66.19
20930;BME280;21895;47.072;15.132;2024-03-02T09:25:33;95969.00;;;13.69;64.68
20930;BME280;21895;47.072;15.132;2024-03-02T09:27:59;95968.00;;;13.61;64.49
20930;BME280;21895;47.072;15.132;2024-03-02T09:30:26;95969.00;;;13.77;64.47
20930;BME280;21895;47.072;15.132;2024-03-02T09:32:52;95970.00;;;13.89;64.38
20930;BME280;21895;47.072;15.132;2024-03-02T09:35:42;95962.00;;;13.93;64.00
20930;BME280;21895;47.072;15.132;2024-03-02T09:38:09;95962.00;;;13.93;64.73
20930;BME280;21895;47.072;15.132;2024-03-02T09:40:36;95967.00;;;13.96;63.62
20930;BME280;21895;47.072;15.132;2024-03-02T09:43:08;95959.00;;;13.99;62.91
20930;BME280;21895;47.072;15.132;2024-03-02T09:45:35;95952.00;;;14.05;62.93
20930;BME280;21895;47.072;15.132;2024-03-02T09:48:02;95953.00;;;14.11;62.45
20930;BME280;21895;47.072;15.132;2024-03-02T09:50:29;95951.00;;;14.32;61.96
20930;BME280;21895;47.072;15.132;2024-03-02T09:52:56;95945.00;;;14.47;60.46
20930;BME280;21895;47.072;15.132;2024-03-02T09:55:23;95949.00;;;14.51;61.08
20930;BME280;21895;47.072;15.132;2024-03-02T09:57:51;95951.00;;;14.73;59.69
20930;BME280;21895;47.072;15.132;2024-03-02T10:00:18;95950.00;;;14.64;60.02
20930;BME280;21895;47.072;15.132;2024-03-02T10:02:45;95945.00;;;14.73;59.47
20930;BME280;21895;47.072;15.132;2024-03-02T10:05:25;95942.00;;;14.76;59.33
20930;BME280;21895;47.072;15.132;2024-03-02T10:08:03;95941.00;;;14.72;59.18
20930;BME280;21895;47.072;15.132;2024-03-02T10:10:41;95951.00;;;14.44;59.26
20930;BME280;21895;47.072;15.132;2024-03-02T10:13:14;95944.00;;;14.36;58.82
20930;BME280;21895;47.072;15.132;2024-03-02T10:15:41;95938.00;;;14.24;59.63
20930;BME280;21895;47.072;15.132;2024-03-02T10:18:13;95937.00;;;14.28;61.18
20930;BME280;21895;47.072;15.132;2024-03-02T10:20:40;95935.00;;;14.34;59.91
20930;BME280;21895;47.072;15.132;2024-03-02T10:23:15;95938.00;;;14.19;61.70
20930;BME280;21895;47.072;15.132;2024-03-02T10:25:44;95926.00;;;14.26;61.34
20930;BME280;21895;47.072;15.132;2024-03-02T10:28:23;95930.00;;;14.64;58.75
20930;BME280;21895;47.072;15.132;2024-03-02T10:30:51;95927.00;;;14.76;58.45
20930;BME280;21895;47.072;15.132;2024-03-02T10:33:19;95932.00;;;14.97;58.75
20930;BME280;21895;47.072;15.132;2024-03-02T10:35:48;95927.00;;;15.02;58.42
20930;BME280;21895;47.072;15.132;2024-03-02T10:38:16;95919.00;;;15.09;58.15
20930;BME280;21895;47.072;15.132;2024-03-02T10:40:47;95923.00;;;15.15;59.25
20930;BME280;21895;47.072;15.132;2024-03-02T10:43:15;95919.00;;;15.31;59.82
20930;BME280;21895;47.072;15.132;2024-03-02T10:45:46;95918.00;;;15.22;59.58
20930;BME280;21895;47.072;15.132;2024-03-02T10:48:15;95912.00;;;15.22;59.44
20930;BME280;21895;47.072;15.132;2024-03-02T10:50:42;95912.00;;;15.28;58.99
20930;BME280;21895;47.072;15.132;2024-03-02T10:53:09;95909.00;;;15.28;58.23
20930;BME280;21895;47.072;15.132;2024-03-02T10:55:35;95910.00;;;15.06;59.91
20930;BME280;21895;47.072;15.132;2024-03-02T10:58:04;95907.00;;;15.27;58.34
20930;BME280;21895;47.072;15.132;2024-03-02T11:00:38;95905.00;;;15.38;57.49
20930;BME280;21895;47.072;15.132;2024-03-02T11:03:09;95902.00;;;15.32;57.52
20930;BME280;21895;47.072;15.132;2024-03-02T11:05:41;95908.00;;;15.38;57.88
20930;BME280;21895;47.072;15.132;2024-03-02T11:08:14;95900.00;;;15.34;56.84
20930;BME280;21895;47.072;15.132;2024-03-02T11:10:58;95901.00;;;15.52;56.44
20930;BME280;21895;47.072;15.132;2024-03-02T11:13:34;95895.00;;;15.57;56.68
20930;BME280;21895;47.072;15.132;2024-03-02T11:16:14;95898.00;;;15.33;56.13
20930;BME280;21895;47.072;15.132;2024-03-02T11:18:45;95883.00;;;15.16;56.19
20930;BME280;21895;47.072;15.132;2024-03-02T11:21:13;95888.00;;;15.32;57.60
20930;BME280;21895;47.072;15.132;2024-03-02T11:23:40;95878.00;;;15.26;56.67
20930;BME280;21895;47.072;15.132;2024-03-02T11:26:22;95878.00;;;15.44;55.98
20930;BME280;21895;47.072;15.132;2024-03-02T11:28:51;95872.00;;;15.51;55.67
20930;BME280;21895;47.072;15.132;2024-03-02T11:31:17;95875.00;;;15.27;56.14
20930;BME280;21895;47.072;15.132;2024-03-02T11:33:44;95869.00;;;15.28;55.75
20930;BME280;21895;47.072;15.132;2024-03-02T11:36:11;95861.00;;;15.06;56.55
20930;BME280;21895;47.072;15.132;2024-03-02T11:38:43;95862.00;;;15.12;56.13
20930;BME280;21895;47.072;15.132;2024-03-02T11:41:12;95867.00;;;15.39;55.93
20930;BME280;21895;47.072;15.132;2024-03-02T11:43:41;95865.00;;;15.44;55.70
20930;BME280;21895;47.072;15.132;2024-03-02T11:46:10;95863.00;;;15.46;55.78
20930;BME280;21895;47.072;15.132;2024-03-02T11:48:39;95863.00;;;15.53;55.65
20930;BME280;21895;47.072;15.132;2024-03-02T11:51:06;95867.00;;;15.71;54.48
20930;BME280;21895;47.072;15.132;2024-03-02T11:53:35;95862.00;;;15.63;54.02
20930;BME280;21895;47.072;15.132;2024-03-02T11:56:06;95862.00;;;15.63;54.62
20930;BME280;21895;47.072;15.132;2024-03-02T11:58:37;95854.00;;;15.60;55.31
20930;BME280;21895;47.072;15.132;2024-03-02T12:01:07;95862.00;;;15.55;56.54
20930;BME280;21895;47.072;15.132;2024-03-02T12:03:34;95862.00;;;15.43;58.07
20930;BME280;21895;47.072;15.132;2024-03-02T12:06:02;95860.00;;;15.62;56.60
20930;BME280;21895;47.072;15.132;2024-03-02T12:08:29;95861.00;;;15.47;57.69
20930;BME280;21895;47.072;15.132;2024-03-02T12:11:01;95855.00;;;15.42;58.40
20930;BME280;21895;47.072;15.132;2024-03-02T12:13:30;95852.00;;;15.50;58.21
20930;BME280;21895;47.072;15.132;2024-03-02T12:15:56;95857.00;;;15.26;58.23
20930;BME280;21895;47.072;15.132;2024-03-02T12:18:24;95862.00;;;15.06;58.35
20930;BME280;21895;47.072;15.132;2024-03-02T12:20:52;95857.00;;;14.90;58.32
20930;BME280;21895;47.072;15.132;2024-03-02T12:23:19;95860.00;;;14.43;59.67
20930;BME280;21895;47.072;15.132;2024-03-02T12:25:46;95860.00;;;14.70;59.16
20930;BME280;21895;47.072;15.132;2024-03-02T12:28:13;95859.00;;;14.71;59.86
20930;BME280;21895;47.072;15.132;2024-03-02T12:30:40;95857.00;;;14.58;59.10
20930;BME280;21895;47.072;15.132;2024-03-02T12:33:07;95856.00;;;14.47;59.87
20930;BME280;21895;47.072;15.132;2024-03-02T12:35:33;95850.00;;;14.62;59.81
20930;BME280;21895;47.072;15.132;2024-03-02T12:38:02;95851.00;;;14.76;59.81
20930;BME280;21895;47.072;15.132;2024-03-02T12:40:30;95856.00;;;14.68;60.09
20930;BME280;21895;47.072;15.132;2024-03-02T12:42:58;95850.00;;;14.86;60.12
20930;BME280;21895;47.072;15.132;2024-03-02T12:45:25;95848.00;;;14.94;59.51
20930;BME280;21895;47.072;15.132;2024-03-02T12:47:52;95853.00;;;15.11;59.22
20930;BME280;21895;47.072;15.132;2024-03-02T12:50:21;95845.00;;;15.25;58.70
20930;BME280;21895;47.072;15.132;2024-03-02T12:52:54;95846.00;;;15.38;57.79
20930;BME280;21895;47.072;15.132;2024-03-02T12:55:22;95849.00;;;15.52;58.34
20930;BME280;21895;47.072;15.132;2024-03-02T12:57:52;95848.00;;;15.52;58.21
20930;BME280;21895;47.072;15.132;2024-03-02T13:00:21;95846.00;;;15.30;59.04